createdAt,value
2023-05-05T00:00:34.682Z,52.98
2023-05-05T00:03:19.261Z,53.39
2023-05-05T00:05:52.074Z,53.66
2023-05-05T00:08:24.598Z,54.03
2023-05-05T00:10:57.691Z,55.02
2023-05-05T00:13:29.735Z,55.73
2023-05-05T00:16:01.540Z,55.98
2023-05-05T00:18:33.870Z,55.91
2023-05-05T00:21:05.825Z,56.17
2023-05-05T00:23:37.536Z,56.65
2023-05-05T00:26:09.335Z,56.87
2023-05-05T00:28:41.174Z,56.91
2023-05-05T00:31:12.967Z,57.41
2023-05-05T00:33:45.089Z,57.78
2023-05-05T00:36:17.320Z,58.35
2023-05-05T00:38:49.063Z,58.74
2023-05-05T00:41:20.810Z,59.36
2023-05-05T00:43:52.701Z,59.99
2023-05-05T00:46:27.672Z,60.73
2023-05-05T00:49:00.685Z,61.63
2023-05-05T00:51:32.784Z,62.01
2023-05-05T00:54:06.427Z,62.48
2023-05-05T00:56:38.434Z,62.93
2023-05-05T00:59:10.194Z,62.87
2023-05-05T01:01:42.165Z,62.87
2023-05-05T01:04:13.971Z,62.81
2023-05-05T01:06:55.305Z,63.22
2023-05-05T01:09:40.032Z,63.41
2023-05-05T01:12:22.773Z,63.49
2023-05-05T01:15:02.392Z,63.97
2023-05-05T01:17:41.826Z,64.15
2023-05-05T01:20:22.639Z,64.03
2023-05-05T01:23:00.530Z,64.22
2023-05-05T01:26:08.738Z,64.42
2023-05-05T01:28:59.254Z,64.74
2023-05-05T01:31:51.687Z,64.74
2023-05-05T01:34:28.578Z,64.95
2023-05-05T01:37:11.041Z,65.02
2023-05-05T01:39:44.634Z,65.41
2023-05-05T01:42:18.647Z,65.41
2023-05-05T01:44:53.294Z,65.39
2023-05-05T01:47:25.894Z,65.34
2023-05-05T01:49:57.705Z,65.08
2023-05-05T01:52:31.056Z,64.99
2023-05-05T01:55:04.305Z,64.75
2023-05-05T01:57:38.177Z,64.29
2023-05-05T02:00:13.045Z,64.18
2023-05-05T02:02:51.604Z,64.41
2023-05-05T02:05:27.024Z,64.49
2023-05-05T02:08:01.665Z,65.14
2023-05-05T02:10:35.318Z,65.52
2023-05-05T02:13:06.196Z,65.94
2023-05-05T02:15:40.391Z,66.12
2023-05-05T02:18:13.255Z,66.63
2023-05-05T02:20:46.681Z,66.14
2023-05-05T02:23:18.740Z,65.88
2023-05-05T02:25:54.631Z,65.89
2023-05-05T02:28:34.472Z,65.74
2023-05-05T02:31:09.714Z,65.53
2023-05-05T02:33:44.092Z,65.25
2023-05-05T02:36:20.234Z,65.20
2023-05-05T02:39:00.174Z,65.12
2023-05-05T02:41:34.250Z,64.61
2023-05-05T02:44:10.558Z,64.34
2023-05-05T02:46:43.641Z,64.28
2023-05-05T02:49:16.005Z,64.28
2023-05-05T02:51:48.045Z,64.14
2023-05-05T02:54:25.623Z,63.74
2023-05-05T02:57:00.500Z,63.81
2023-05-05T02:59:47.125Z,63.84
2023-05-05T03:02:25.586Z,63.87
2023-05-05T03:05:01.803Z,64.06
2023-05-05T03:07:41.763Z,64.04
2023-05-05T03:10:17.730Z,63.90
2023-05-05T03:12:55.947Z,64.13
2023-05-05T03:15:37.336Z,63.94
2023-05-05T03:18:12.534Z,64.04
2023-05-05T03:20:46.588Z,64.14
2023-05-05T03:23:21.005Z,64.13
2023-05-05T03:25:53.504Z,64.30
2023-05-05T03:28:45.994Z,64.45
2023-05-05T03:31:24.726Z,64.69
2023-05-05T03:33:59.727Z,64.57
2023-05-05T03:36:34.303Z,64.65
2023-05-05T03:39:06.394Z,64.83
2023-05-05T03:41:38.411Z,64.94
2023-05-05T03:44:10.681Z,65.21
2023-05-05T03:46:42.522Z,65.08
2023-05-05T03:49:16.354Z,65.11
2023-05-05T03:51:48.422Z,65.33
2023-05-05T03:54:20.773Z,65.63
2023-05-05T03:56:52.629Z,65.78
2023-05-05T03:59:24.505Z,65.83
2023-05-05T04:01:57.754Z,65.78
2023-05-05T04:04:29.595Z,65.64
2023-05-05T04:07:01.653Z,65.62
2023-05-05T04:09:34.929Z,65.57
2023-05-05T04:12:07.605Z,65.73
2023-05-05T04:14:37.989Z,65.88
2023-05-05T04:17:10.584Z,65.90
2023-05-05T04:19:41.545Z,66.11
2023-05-05T04:22:13.634Z,65.85
2023-05-05T04:24:45.428Z,65.95
2023-05-05T04:27:17.508Z,65.59
2023-05-05T04:29:49.713Z,65.41
2023-05-05T04:32:21.586Z,65.31
2023-05-05T04:34:54.303Z,65.28
2023-05-05T04:37:26.990Z,65.42
2023-05-05T04:39:59.058Z,65.20
2023-05-05T04:42:31.695Z,65.53
2023-05-05T04:45:03.526Z,65.29
2023-05-05T04:47:39.758Z,65.47
2023-05-05T04:50:13.731Z,65.77
2023-05-05T04:52:45.564Z,65.51
2023-05-05T04:55:17.539Z,65.25
2023-05-05T04:57:49.291Z,65.41
2023-05-05T05:00:21.808Z,65.19
2023-05-05T05:02:53.829Z,65.01
2023-05-05T05:05:26.158Z,65.07
2023-05-05T05:07:58.269Z,65.21
2023-05-05T05:10:30.394Z,65.24
2023-05-05T05:13:02.166Z,64.97
2023-05-05T05:15:34.119Z,65.04
2023-05-05T05:18:06.564Z,64.70
2023-05-05T05:20:38.385Z,64.89
2023-05-05T05:23:10.791Z,64.67
2023-05-05T05:25:47.017Z,64.89
2023-05-05T05:28:19.837Z,65.46
2023-05-05T05:30:55.220Z,65.67
2023-05-05T05:33:27.159Z,65.43
2023-05-05T05:35:59.630Z,65.48
2023-05-05T05:38:31.817Z,65.30
2023-05-05T05:41:08.735Z,65.36
2023-05-05T05:43:41.576Z,65.07
2023-05-05T05:46:13.813Z,65.03
2023-05-05T05:48:46.546Z,65.02
2023-05-05T05:51:18.716Z,64.93
2023-05-05T05:53:51.874Z,64.50
2023-05-05T05:56:23.950Z,64.20
2023-05-05T05:58:56.471Z,64.28
2023-05-05T06:01:28.385Z,64.05
2023-05-05T06:04:00.457Z,63.92
2023-05-05T06:06:32.484Z,63.91
2023-05-05T06:09:06.000Z,64.06
2023-05-05T06:11:38.233Z,63.73
2023-05-05T06:14:10.859Z,63.63
2023-05-05T06:16:41.877Z,62.96
2023-05-05T06:19:15.538Z,63.04
2023-05-05T06:21:46.824Z,63.03
2023-05-05T06:24:18.799Z,63.16
2023-05-05T06:26:50.892Z,63.27
2023-05-05T06:29:22.776Z,62.82
2023-05-05T06:31:54.643Z,62.45
2023-05-05T06:34:26.932Z,62.52
2023-05-05T06:36:58.984Z,62.37
2023-05-05T06:39:31.325Z,62.25
2023-05-05T06:42:04.040Z,61.91
2023-05-05T06:44:36.383Z,61.57
2023-05-05T06:47:08.786Z,61.66
2023-05-05T06:49:40.632Z,61.84
2023-05-05T06:52:12.628Z,61.99
2023-05-05T06:54:45.950Z,61.90
2023-05-05T06:57:17.778Z,61.69
2023-05-05T06:59:49.527Z,61.91
2023-05-05T07:02:21.377Z,62.17
2023-05-05T07:04:55.363Z,62.32
2023-05-05T07:07:27.534Z,62.08
2023-05-05T07:09:59.387Z,61.41
2023-05-05T07:12:32.236Z,61.76
2023-05-05T07:15:12.273Z,61.53
2023-05-05T07:17:51.349Z,61.13
2023-05-05T07:20:23.426Z,61.39
2023-05-05T07:22:55.236Z,61.39
2023-05-05T07:25:27.189Z,61.31
2023-05-05T07:27:59.350Z,60.85
2023-05-05T07:30:31.312Z,60.52
2023-05-05T07:33:04.734Z,60.56
2023-05-05T07:35:36.645Z,60.26
2023-05-05T07:38:10.771Z,60.44
2023-05-05T07:40:43.182Z,60.99
2023-05-05T07:43:15.071Z,61.35
2023-05-05T07:45:47.221Z,61.39
2023-05-05T07:48:19.091Z,60.53
2023-05-05T07:50:52.406Z,60.56
2023-05-05T07:53:24.565Z,60.91
2023-05-05T07:55:56.982Z,60.75
2023-05-05T07:58:28.810Z,60.94
2023-05-05T08:01:01.321Z,60.72
2023-05-05T08:03:33.332Z,60.37
2023-05-05T08:06:09.840Z,60.35
2023-05-05T08:08:41.997Z,60.90
2023-05-05T08:11:13.797Z,61.36
2023-05-05T08:13:45.820Z,61.06
2023-05-05T08:16:18.904Z,61.23
2023-05-05T08:18:51.179Z,61.14
2023-05-05T08:21:23.486Z,60.95
2023-05-05T08:23:55.316Z,60.71
2023-05-05T08:26:27.191Z,60.43
2023-05-05T08:29:00.818Z,60.27
2023-05-05T08:31:36.772Z,60.13
2023-05-05T08:34:08.582Z,60.21
2023-05-05T08:36:40.479Z,60.17
2023-05-05T08:39:12.382Z,60.32
2023-05-05T08:41:44.497Z,60.30
2023-05-05T08:44:16.296Z,60.12
2023-05-05T08:46:49.999Z,59.78
2023-05-05T08:49:22.976Z,59.83
2023-05-05T08:51:55.143Z,59.62
2023-05-05T08:54:31.900Z,59.75
2023-05-05T08:57:09.099Z,59.42
2023-05-05T08:59:42.036Z,58.84
2023-05-05T09:02:15.479Z,58.77
2023-05-05T09:04:47.350Z,58.23
2023-05-05T09:07:19.703Z,57.34
2023-05-05T09:09:51.935Z,56.83
2023-05-05T09:12:24.281Z,57.25
2023-05-05T09:14:57.894Z,56.78
2023-05-05T09:17:33.487Z,56.17
2023-05-05T09:20:07.683Z,55.41
2023-05-05T09:22:41.403Z,55.14
2023-05-05T09:25:15.061Z,54.95
2023-05-05T09:27:48.484Z,54.84
2023-05-05T09:30:27.012Z,54.23
2023-05-05T09:32:58.985Z,54.08
2023-05-05T09:35:48.227Z,54.16
2023-05-05T09:38:20.564Z,53.77
2023-05-05T09:40:54.323Z,53.60
2023-05-05T09:43:26.630Z,53.66
2023-05-05T09:46:08.550Z,53.14
2023-05-05T09:48:40.457Z,52.20
2023-05-05T09:51:12.258Z,52.68
2023-05-05T09:53:45.044Z,52.68
2023-05-05T09:56:16.749Z,52.83
2023-05-05T09:58:48.674Z,53.32
2023-05-05T10:01:25.965Z,53.20
2023-05-05T10:03:57.732Z,52.82
2023-05-05T10:06:44.341Z,52.70
2023-05-05T10:09:16.249Z,52.62
2023-05-05T10:11:57.022Z,52.69
2023-05-05T10:14:32.844Z,52.32
2023-05-05T10:17:07.076Z,50.96
2023-05-05T10:19:40.400Z,50.95
2023-05-05T10:22:12.664Z,50.99
2023-05-05T10:24:48.574Z,51.26
2023-05-05T10:27:24.129Z,50.97
2023-05-05T10:30:04.530Z,50.41
2023-05-05T10:35:24.528Z,49.55
2023-05-05T10:37:57.678Z,49.41
2023-05-05T10:40:31.620Z,48.34
2023-05-05T10:43:03.615Z,48.00
2023-05-05T10:45:35.754Z,47.42
2023-05-05T10:48:15.673Z,46.52
2023-05-05T10:50:54.440Z,45.71
2023-05-05T10:53:30.002Z,45.34
2023-05-05T10:56:10.475Z,45.84
2023-05-05T10:58:55.453Z,45.85
2023-05-05T11:01:35.447Z,45.95
2023-05-05T11:04:21.623Z,46.04
2023-05-05T11:07:27.417Z,46.10
2023-05-05T11:10:01.645Z,46.06
2023-05-05T11:12:47.496Z,46.01
2023-05-05T11:15:38.744Z,44.75
2023-05-05T11:18:28.791Z,44.84
2023-05-05T11:21:21.113Z,45.31
2023-05-05T11:23:54.142Z,45.13
2023-05-05T11:26:52.353Z,45.19
2023-05-05T11:29:26.238Z,45.89
2023-05-05T11:32:15.674Z,45.29
2023-05-05T11:34:53.778Z,44.97
2023-05-05T11:37:28.141Z,44.73
2023-05-05T11:40:14.611Z,44.95
2023-05-05T11:42:46.836Z,44.45
2023-05-05T11:45:25.777Z,44.80
2023-05-05T11:48:27.887Z,44.36
2023-05-05T11:51:03.633Z,44.09
2023-05-05T11:53:36.764Z,43.86
2023-05-05T11:56:12.648Z,43.67
2023-05-05T11:58:45.244Z,44.06
2023-05-05T12:01:17.523Z,43.46
2023-05-05T12:03:49.531Z,43.52
2023-05-05T12:06:21.589Z,43.61
2023-05-05T12:08:53.836Z,43.31
2023-05-05T12:11:25.857Z,42.93
2023-05-05T12:14:11.435Z,42.85
2023-05-05T12:16:54.567Z,43.05
2023-05-05T12:19:30.113Z,44.48
2023-05-05T12:22:02.432Z,44.40
2023-05-05T12:24:34.450Z,44.57
2023-05-05T12:27:12.140Z,44.24
2023-05-05T12:29:44.028Z,43.97
2023-05-05T12:32:24.258Z,44.17
2023-05-05T12:34:57.365Z,44.09
2023-05-05T12:37:29.754Z,43.51
2023-05-05T12:40:01.632Z,43.81
2023-05-05T12:42:38.646Z,43.61
2023-05-05T12:45:19.024Z,43.42
2023-05-05T12:47:50.854Z,43.22
2023-05-05T12:50:33.341Z,43.22
2023-05-05T12:53:05.559Z,42.84
2023-05-05T12:55:41.278Z,42.46
2023-05-05T12:58:13.429Z,42.31
2023-05-05T13:00:48.142Z,42.82
2023-05-05T13:03:23.717Z,43.01
2023-05-05T13:05:55.638Z,42.28
2023-05-05T13:08:44.588Z,41.58
2023-05-05T13:11:16.570Z,41.82
2023-05-05T13:13:48.335Z,42.05
2023-05-05T13:16:20.201Z,42.12
2023-05-05T13:18:53.612Z,42.38
2023-05-05T13:21:25.322Z,42.16
2023-05-05T13:24:08.305Z,42.42
2023-05-05T13:26:49.565Z,42.67
2023-05-05T13:29:21.505Z,42.27
2023-05-05T13:31:53.206Z,41.87
2023-05-05T13:34:24.942Z,41.89
2023-05-05T13:36:56.994Z,41.79
2023-05-05T13:39:28.788Z,41.86
2023-05-05T13:42:00.608Z,41.93
2023-05-05T13:44:33.112Z,41.94
2023-05-05T13:47:05.653Z,41.47
2023-05-05T13:49:37.676Z,41.37
2023-05-05T13:52:09.476Z,41.38
2023-05-05T13:54:41.988Z,41.46
2023-05-05T13:57:12.308Z,41.95
2023-05-05T13:59:44.792Z,41.41
2023-05-05T14:02:16.541Z,41.50
2023-05-05T14:04:48.404Z,41.51
2023-05-05T14:07:21.385Z,41.90
2023-05-05T14:09:53.160Z,41.71
2023-05-05T14:12:24.923Z,41.90
2023-05-05T14:14:56.912Z,42.65
2023-05-05T14:17:29.006Z,43.18
2023-05-05T14:20:01.268Z,43.35
2023-05-05T14:22:34.197Z,43.30
2023-05-05T14:25:07.340Z,43.36
2023-05-05T14:27:39.676Z,42.87
2023-05-05T14:30:12.937Z,42.13
2023-05-05T14:32:44.838Z,41.21
2023-05-05T14:35:16.676Z,40.75
2023-05-05T14:37:48.431Z,40.69
2023-05-05T14:40:20.431Z,41.24
2023-05-05T14:42:52.159Z,40.36
2023-05-05T14:45:23.993Z,39.58
2023-05-05T14:47:56.172Z,39.15
2023-05-05T14:50:27.977Z,38.77
2023-05-05T14:52:59.682Z,39.22
2023-05-05T14:55:31.552Z,39.01
2023-05-05T14:58:03.218Z,38.69
2023-05-05T15:00:34.949Z,38.06
2023-05-05T15:03:06.942Z,38.18
2023-05-05T15:05:38.798Z,38.04
2023-05-05T15:08:10.597Z,38.15
2023-05-05T15:10:42.347Z,37.50
2023-05-05T15:13:14.584Z,38.06
2023-05-05T15:15:46.511Z,38.79
2023-05-05T15:18:18.378Z,39.57
2023-05-05T15:20:50.275Z,39.35
2023-05-05T15:23:23.077Z,39.01
2023-05-05T15:25:53.366Z,38.93
2023-05-05T15:28:25.528Z,39.23
2023-05-05T15:30:57.582Z,40.22
2023-05-05T15:33:30.251Z,40.45
2023-05-05T15:36:02.372Z,40.38
2023-05-05T15:38:34.389Z,40.43
2023-05-05T15:41:09.035Z,39.93
2023-05-05T15:43:41.285Z,38.88
2023-05-05T15:46:13.613Z,38.27
2023-05-05T15:48:45.646Z,38.55
2023-05-05T15:51:18.807Z,38.69
2023-05-05T15:53:52.245Z,39.16
2023-05-05T15:56:27.481Z,39.43
2023-05-05T15:59:03.245Z,39.80
2023-05-05T16:01:36.381Z,39.86
2023-05-05T16:04:09.049Z,40.39
2023-05-05T16:06:41.162Z,40.76
2023-05-05T16:09:13.660Z,40.78
2023-05-05T16:11:45.849Z,42.41
2023-05-05T16:14:17.537Z,44.49
2023-05-05T16:16:49.484Z,41.51
2023-05-05T16:19:23.884Z,41.52
2023-05-05T16:21:56.449Z,41.14
2023-05-05T16:24:27.044Z,41.42
2023-05-05T16:26:58.928Z,41.42
2023-05-05T16:29:31.523Z,41.05
2023-05-05T16:32:04.801Z,41.30
2023-05-05T16:34:36.715Z,41.43
2023-05-05T16:37:09.005Z,41.37
2023-05-05T16:39:41.497Z,41.47
2023-05-05T16:42:13.778Z,42.22
2023-05-05T16:44:45.998Z,42.28
2023-05-05T16:47:18.935Z,41.91
2023-05-05T16:49:52.554Z,42.30
2023-05-05T16:52:24.653Z,43.21
2023-05-05T16:54:56.740Z,43.59
2023-05-05T16:57:28.775Z,44.14
2023-05-05T17:00:00.946Z,44.58
2023-05-05T17:02:33.236Z,44.47
2023-05-05T17:05:05.765Z,44.42
2023-05-05T17:07:37.588Z,44.50
2023-05-05T17:10:11.719Z,44.74
2023-05-05T17:12:43.614Z,44.51
2023-05-05T17:15:15.996Z,44.53
2023-05-05T17:17:48.779Z,44.89
2023-05-05T17:20:20.709Z,44.87
2023-05-05T17:22:52.948Z,45.03
2023-05-05T17:25:26.189Z,45.66
2023-05-05T17:27:58.414Z,45.79
2023-05-05T17:30:30.214Z,46.09
2023-05-05T17:33:01.937Z,46.11
2023-05-05T17:35:34.102Z,46.49
2023-05-05T17:38:05.846Z,47.11
2023-05-05T17:40:37.507Z,47.54
2023-05-05T17:43:09.276Z,47.76
2023-05-05T17:45:42.324Z,47.81
2023-05-05T17:48:14.163Z,47.67
2023-05-05T17:50:47.794Z,48.01
2023-05-05T17:53:19.782Z,47.68
2023-05-05T17:55:51.507Z,47.55
2023-05-05T17:58:23.190Z,47.84
2023-05-05T18:00:54.925Z,47.96
2023-05-05T18:03:26.911Z,48.11
2023-05-05T18:05:58.733Z,48.51
2023-05-05T18:08:30.812Z,48.24
2023-05-05T18:11:02.800Z,48.63
2023-05-05T18:13:34.753Z,48.79
2023-05-05T18:16:07.119Z,49.09
2023-05-05T18:18:40.587Z,49.60
2023-05-05T18:21:13.000Z,49.73
2023-05-05T18:23:44.723Z,49.82
2023-05-05T18:26:17.392Z,50.13
2023-05-05T18:28:49.121Z,50.32
2023-05-05T18:31:21.809Z,50.37
2023-05-05T18:33:53.706Z,51.06
2023-05-05T18:36:27.620Z,51.26
2023-05-05T18:39:00.133Z,51.61
2023-05-05T18:41:32.345Z,51.76
2023-05-05T18:44:04.155Z,52.20
2023-05-05T18:46:36.125Z,52.19
2023-05-05T18:49:08.369Z,52.39
2023-05-05T18:51:40.204Z,52.53
2023-05-05T18:54:12.113Z,52.83
2023-05-05T18:56:44.007Z,52.66
2023-05-05T18:59:15.833Z,52.86
2023-05-05T19:01:47.541Z,53.24
2023-05-05T19:04:30.860Z,53.49
2023-05-05T19:07:03.591Z,53.51
2023-05-05T19:09:36.057Z,53.82
2023-05-05T19:12:08.411Z,54.00
2023-05-05T19:14:40.455Z,54.30
2023-05-05T19:17:12.208Z,54.09
2023-05-05T19:19:44.106Z,54.08
2023-05-05T19:22:17.192Z,54.52
2023-05-05T19:24:49.315Z,54.83
2023-05-05T19:27:22.129Z,55.05
2023-05-05T19:29:52.619Z,54.99
2023-05-05T19:32:24.864Z,55.38
2023-05-05T19:34:56.971Z,55.30
2023-05-05T19:37:29.132Z,55.69
2023-05-05T19:40:00.949Z,55.90
2023-05-05T19:42:32.692Z,55.86
2023-05-05T19:45:05.615Z,55.99
2023-05-05T19:47:37.509Z,55.89
2023-05-05T19:50:11.120Z,56.15
2023-05-05T19:52:43.059Z,56.06
2023-05-05T19:55:14.771Z,56.49
2023-05-05T19:57:46.601Z,56.54
2023-05-05T20:00:19.853Z,56.56
2023-05-05T20:02:51.885Z,56.43
2023-05-05T20:05:23.995Z,56.64
2023-05-05T20:07:55.755Z,56.99
2023-05-05T20:10:27.683Z,56.81
2023-05-05T20:12:59.856Z,56.93
2023-05-05T20:15:32.724Z,56.84
2023-05-05T20:18:05.426Z,57.43
2023-05-05T20:20:37.206Z,57.22
2023-05-05T20:23:09.120Z,57.51
2023-05-05T20:25:41.303Z,57.63
2023-05-05T20:28:12.989Z,57.47
2023-05-05T20:30:44.694Z,57.47
2023-05-05T20:33:16.593Z,57.43
2023-05-05T20:35:48.365Z,57.49
2023-05-05T20:38:20.100Z,57.64
2023-05-05T20:40:52.047Z,57.45
2023-05-05T20:43:24.020Z,57.39
2023-05-05T20:45:55.966Z,57.47
2023-05-05T20:48:27.683Z,57.60
2023-05-05T20:50:59.869Z,57.76
2023-05-05T20:53:31.740Z,57.83
2023-05-05T20:56:03.838Z,57.77
2023-05-05T20:58:36.589Z,58.03
2023-05-05T21:01:08.271Z,58.30
2023-05-05T21:03:40.071Z,58.35
2023-05-05T21:06:11.967Z,58.33
2023-05-05T21:08:44.092Z,58.88
2023-05-05T21:11:15.798Z,58.98
2023-05-05T21:13:47.552Z,59.25
2023-05-05T21:16:19.292Z,59.62
2023-05-05T21:18:51.001Z,59.93
2023-05-05T21:21:23.744Z,60.12
2023-05-05T21:23:55.820Z,60.19
2023-05-05T21:26:27.818Z,60.19
2023-05-05T21:28:59.593Z,60.44
2023-05-05T21:31:31.554Z,60.69
2023-05-05T21:34:02.546Z,60.97
2023-05-05T21:36:34.654Z,61.27
2023-05-05T21:39:06.633Z,61.53
2023-05-05T21:41:38.837Z,61.71
2023-05-05T21:44:10.684Z,61.92
2023-05-05T21:46:42.664Z,62.17
2023-05-05T21:49:18.715Z,62.42
2023-05-05T21:51:51.109Z,62.67
2023-05-05T21:54:22.940Z,62.92
2023-05-05T21:56:54.790Z,63.12
2023-05-05T21:59:26.553Z,62.97
2023-05-05T22:01:58.387Z,63.24
2023-05-05T22:04:30.246Z,63.71
2023-05-05T22:07:02.089Z,63.65
2023-05-05T22:09:33.943Z,63.51
2023-05-05T22:12:06.156Z,63.58
2023-05-05T22:14:38.112Z,63.51
2023-05-05T22:17:09.871Z,63.41
2023-05-05T22:19:41.728Z,63.22
2023-05-05T22:22:13.485Z,63.14
2023-05-05T22:24:45.256Z,63.34
2023-05-05T22:27:16.917Z,63.33
2023-05-05T22:29:48.617Z,63.44
2023-05-05T22:32:21.137Z,63.35
2023-05-05T22:34:52.972Z,63.33
2023-05-05T22:37:25.015Z,63.24
2023-05-05T22:39:56.661Z,63.13
2023-05-05T22:42:29.630Z,62.94
2023-05-05T22:45:01.319Z,63.12
2023-05-05T22:47:33.162Z,63.10
2023-05-05T22:50:05.139Z,63.24
2023-05-05T22:52:36.869Z,63.37
2023-05-05T22:55:09.842Z,63.63
2023-05-05T22:57:42.248Z,63.91
2023-05-05T23:00:14.662Z,63.74
2023-05-05T23:02:46.489Z,63.89
2023-05-05T23:05:18.408Z,63.96
2023-05-05T23:07:50.178Z,64.03
2023-05-05T23:10:22.070Z,64.37
2023-05-05T23:12:54.232Z,64.37
2023-05-05T23:15:25.971Z,64.38
2023-05-05T23:17:58.223Z,64.14
2023-05-05T23:20:30.041Z,64.12
2023-05-05T23:23:01.932Z,64.20
2023-05-05T23:25:33.830Z,63.98
2023-05-05T23:28:05.997Z,64.01
2023-05-05T23:30:38.171Z,64.30
2023-05-05T23:33:10.287Z,64.32
2023-05-05T23:35:43.504Z,64.31
2023-05-05T23:38:16.130Z,64.51
2023-05-05T23:40:47.788Z,64.76
2023-05-05T23:43:19.559Z,64.93
2023-05-05T23:45:51.593Z,64.92
2023-05-05T23:48:23.440Z,64.54
2023-05-05T23:50:55.920Z,64.46
2023-05-05T23:53:27.620Z,64.46
2023-05-05T23:55:59.827Z,64.20
2023-05-05T23:58:31.554Z,64.44
